createdAt,value
2023-10-03T00:00:35.572Z,20.80
2023-10-03T00:03:37.786Z,20.70
2023-10-03T00:06:40.510Z,20.70
2023-10-03T00:09:42.788Z,20.80
2023-10-03T00:12:49.728Z,20.80
2023-10-03T00:15:51.778Z,20.90
2023-10-03T00:18:53.558Z,20.90
2023-10-03T00:21:55.569Z,21.00
2023-10-03T00:24:58.118Z,21.00
2023-10-03T00:28:03.060Z,21.00
2023-10-03T00:31:14.488Z,21.00
2023-10-03T00:34:16.392Z,21.10
2023-10-03T00:37:18.664Z,21.10
2023-10-03T00:40:22.303Z,21.20
2023-10-03T00:43:26.158Z,21.30
2023-10-03T00:46:31.271Z,21.40
2023-10-03T00:49:33.145Z,21.40
2023-10-03T00:52:36.367Z,21.40
2023-10-03T00:55:39.784Z,21.50
2023-10-03T00:58:42.662Z,21.50
2023-10-03T01:01:47.637Z,21.50
2023-10-03T01:04:50.560Z,21.50
2023-10-03T01:07:52.508Z,21.50
2023-10-03T01:10:56.286Z,21.50
2023-10-03T01:13:59.970Z,21.50
2023-10-03T01:17:03.797Z,21.50
2023-10-03T01:20:17.994Z,21.50
2023-10-03T01:23:20.633Z,21.40
2023-10-03T01:26:22.808Z,21.40
2023-10-03T01:29:24.840Z,21.40
2023-10-03T01:32:32.881Z,21.50
2023-10-03T01:35:35.262Z,21.50
2023-10-03T01:38:40.004Z,21.50
2023-10-03T01:41:43.760Z,21.40
2023-10-03T01:44:45.975Z,21.40
2023-10-03T01:47:52.796Z,21.40
2023-10-03T01:50:54.915Z,21.40
2023-10-03T01:53:59.495Z,21.50
2023-10-03T01:57:02.004Z,21.50
2023-10-03T02:00:19.252Z,21.50
2023-10-03T02:03:22.445Z,21.50
2023-10-03T02:06:24.359Z,21.50
2023-10-03T02:09:26.441Z,21.50
2023-10-03T02:12:28.700Z,21.50
2023-10-03T02:15:30.504Z,21.50
2023-10-03T02:18:32.383Z,21.50
2023-10-03T02:21:34.349Z,21.50
2023-10-03T02:24:37.362Z,21.60
2023-10-03T02:27:39.662Z,21.60
2023-10-03T02:30:41.721Z,21.60
2023-10-03T02:33:45.644Z,21.60
2023-10-03T02:36:49.714Z,21.50
2023-10-03T02:39:52.971Z,21.50
2023-10-03T02:42:55.977Z,21.50
2023-10-03T02:45:58.386Z,21.50
2023-10-03T02:49:00.596Z,21.50
2023-10-03T02:52:05.107Z,21.50
2023-10-03T02:55:13.413Z,21.40
2023-10-03T02:58:16.303Z,21.40
2023-10-03T03:01:18.793Z,21.40
2023-10-03T03:04:22.888Z,21.40
2023-10-03T03:07:28.791Z,21.30
2023-10-03T03:10:32.190Z,21.30
2023-10-03T03:13:36.735Z,21.30
2023-10-03T03:16:41.714Z,21.30
2023-10-03T03:19:45.469Z,21.20
2023-10-03T03:22:50.526Z,21.20
2023-10-03T03:26:07.473Z,21.20
2023-10-03T03:29:22.401Z,21.20
2023-10-03T03:32:28.704Z,21.20
2023-10-03T03:35:39.120Z,21.20
2023-10-03T03:38:40.982Z,21.10
2023-10-03T03:41:44.236Z,21.10
2023-10-03T03:44:46.824Z,21.10
2023-10-03T03:47:51.708Z,21.10
2023-10-03T03:50:53.878Z,21.10
2023-10-03T03:53:56.498Z,21.10
2023-10-03T03:56:58.456Z,21.10
2023-10-03T04:00:00.447Z,21.10
2023-10-03T04:03:26.049Z,21.10
2023-10-03T04:06:28.118Z,21.00
2023-10-03T04:09:29.895Z,21.00
2023-10-03T04:12:32.501Z,21.10
2023-10-03T04:15:34.396Z,21.00
2023-10-03T04:18:38.317Z,21.00
2023-10-03T04:21:42.660Z,20.90
2023-10-03T04:24:44.919Z,20.90
2023-10-03T04:27:55.548Z,20.90
2023-10-03T04:30:57.568Z,20.90
2023-10-03T04:33:59.418Z,20.90
2023-10-03T04:37:01.347Z,20.80
2023-10-03T04:40:04.567Z,20.80
2023-10-03T04:43:12.327Z,20.80
2023-10-03T04:46:14.524Z,20.80
2023-10-03T04:49:19.264Z,20.70
2023-10-03T04:52:21.057Z,20.70
2023-10-03T04:55:24.296Z,20.70
2023-10-03T04:58:26.065Z,20.70
2023-10-03T05:01:28.247Z,20.70
2023-10-03T05:04:30.138Z,20.70
2023-10-03T05:07:32.206Z,20.60
2023-10-03T05:10:34.881Z,20.60
2023-10-03T05:13:37.782Z,20.60
2023-10-03T05:16:40.570Z,20.50
2023-10-03T05:19:45.340Z,20.50
2023-10-03T05:22:47.741Z,20.40
2023-10-03T05:25:49.818Z,20.40
2023-10-03T05:28:56.850Z,20.40
2023-10-03T05:32:01.313Z,20.40
2023-10-03T05:35:06.157Z,20.30
2023-10-03T05:38:12.082Z,20.30
2023-10-03T05:41:22.418Z,20.30
2023-10-03T05:44:26.071Z,20.30
2023-10-03T05:47:29.593Z,20.30
2023-10-03T05:50:32.709Z,20.20
2023-10-03T05:53:35.865Z,20.20
2023-10-03T05:56:38.675Z,20.20
2023-10-03T05:59:40.657Z,20.20
2023-10-03T06:02:43.384Z,20.20
2023-10-03T06:05:47.109Z,20.10
2023-10-03T06:08:50.508Z,20.10
2023-10-03T06:11:54.245Z,20.00
2023-10-03T06:14:56.676Z,20.00
2023-10-03T06:17:58.645Z,20.00
2023-10-03T06:21:00.615Z,20.00
2023-10-03T06:24:02.861Z,19.90
2023-10-03T06:27:06.636Z,19.90
2023-10-03T06:30:09.248Z,19.90
2023-10-03T06:33:12.080Z,19.90
2023-10-03T06:36:14.228Z,19.90
2023-10-03T06:39:16.454Z,19.80
2023-10-03T06:42:20.035Z,19.80
2023-10-03T06:45:22.504Z,19.80
2023-10-03T06:48:25.668Z,19.90
2023-10-03T06:51:27.745Z,19.90
2023-10-03T06:54:30.510Z,19.90
2023-10-03T06:57:34.304Z,19.90
2023-10-03T07:00:37.666Z,19.90
2023-10-03T07:03:41.680Z,19.90
2023-10-03T07:06:45.150Z,19.90
2023-10-03T07:09:47.266Z,19.90
2023-10-03T07:12:49.662Z,19.90
2023-10-03T07:15:51.546Z,20.00
2023-10-03T07:18:54.346Z,20.00
2023-10-03T07:21:56.695Z,20.10
2023-10-03T07:24:58.854Z,20.10
2023-10-03T07:28:00.992Z,20.10
2023-10-03T07:31:03.857Z,20.20
2023-10-03T07:34:05.919Z,20.20
2023-10-03T07:37:07.758Z,20.30
2023-10-03T07:40:11.636Z,20.20
2023-10-03T07:43:13.874Z,20.20
2023-10-03T07:46:26.802Z,20.20
2023-10-03T07:49:29.961Z,20.20
2023-10-03T07:52:31.749Z,20.10
2023-10-03T07:55:36.783Z,20.10
2023-10-03T07:58:40.130Z,20.10
2023-10-03T08:01:59.735Z,19.90
2023-10-03T08:05:03.141Z,19.90
2023-10-03T08:08:06.362Z,19.90
2023-10-03T08:11:09.258Z,19.80
2023-10-03T08:14:15.023Z,19.80
2023-10-03T08:17:17.296Z,19.80
2023-10-03T08:20:20.119Z,19.80
2023-10-03T08:23:22.028Z,19.90
2023-10-03T08:26:26.467Z,19.90
2023-10-03T08:29:28.947Z,19.90
2023-10-03T08:32:32.741Z,19.90
2023-10-03T08:35:39.137Z,19.90
2023-10-03T08:38:45.328Z,19.90
2023-10-03T08:42:14.660Z,19.90
2023-10-03T08:45:18.649Z,19.90
2023-10-03T08:48:27.626Z,19.90
2023-10-03T08:51:35.068Z,19.80
2023-10-03T08:54:38.775Z,19.80
2023-10-03T08:57:41.274Z,19.90
2023-10-03T09:00:59.805Z,19.80
2023-10-03T09:04:06.536Z,19.80
2023-10-03T09:07:10.363Z,19.90
2023-10-03T09:10:23.858Z,19.80
2023-10-03T09:13:29.331Z,19.90
2023-10-03T09:16:32.037Z,20.00
2023-10-03T09:19:47.558Z,20.00
2023-10-03T09:22:50.413Z,20.00
2023-10-03T09:25:55.820Z,20.00
2023-10-03T09:29:00.076Z,20.00
2023-10-03T09:32:15.135Z,20.00
2023-10-03T09:35:17.924Z,19.90
2023-10-03T09:38:26.399Z,19.90
2023-10-03T09:41:30.831Z,19.90
2023-10-03T09:44:32.862Z,19.90
2023-10-03T09:47:39.268Z,19.90
2023-10-03T09:50:52.924Z,19.80
2023-10-03T09:53:57.702Z,19.80
2023-10-03T09:57:02.111Z,19.70
2023-10-03T10:00:24.255Z,19.70
2023-10-03T10:03:32.690Z,19.60
2023-10-03T10:06:53.561Z,19.40
2023-10-03T10:10:15.169Z,19.20
2023-10-03T10:13:23.491Z,19.00
2023-10-03T10:16:29.484Z,18.90
2023-10-03T10:20:10.126Z,18.90
2023-10-03T10:23:12.693Z,18.70
2023-10-03T10:26:50.433Z,18.70
2023-10-03T10:30:19.068Z,18.60
2023-10-03T10:33:24.048Z,18.70
2023-10-03T10:37:06.111Z,18.70
2023-10-03T10:40:11.865Z,18.70
2023-10-03T10:43:17.871Z,18.70
2023-10-03T10:46:48.579Z,18.80
2023-10-03T10:50:17.426Z,18.70
2023-10-03T10:53:21.453Z,18.70
2023-10-03T10:56:27.302Z,18.80
2023-10-03T10:59:31.288Z,18.80
2023-10-03T11:05:46.940Z,18.80
2023-10-03T11:08:53.094Z,18.70
2023-10-03T11:11:56.955Z,18.60
2023-10-03T11:15:00.053Z,18.60
2023-10-03T11:18:02.213Z,18.60
2023-10-03T11:21:04.947Z,18.70
2023-10-03T11:24:15.153Z,18.60
2023-10-03T11:27:28.059Z,18.70
2023-10-03T11:30:31.005Z,18.70
2023-10-03T11:33:48.257Z,18.60
2023-10-03T11:40:20.000Z,18.60
2023-10-03T11:43:22.112Z,18.40
2023-10-03T11:46:23.989Z,18.50
2023-10-03T11:49:26.863Z,18.40
2023-10-03T11:52:30.612Z,18.40
2023-10-03T11:55:34.319Z,18.40
2023-10-03T11:58:37.001Z,18.30
2023-10-03T12:01:38.867Z,18.30
2023-10-03T12:04:40.661Z,18.40
2023-10-03T12:07:47.137Z,18.40
2023-10-03T12:10:50.249Z,18.50
2023-10-03T12:13:52.027Z,18.60
2023-10-03T12:16:53.777Z,18.50
2023-10-03T12:19:58.679Z,18.60
2023-10-03T12:23:00.812Z,18.70
2023-10-03T12:26:09.391Z,18.80
2023-10-03T12:29:18.244Z,18.80
2023-10-03T12:32:20.006Z,18.70
2023-10-03T12:35:22.740Z,18.80
2023-10-03T12:38:24.847Z,18.90
2023-10-03T12:41:30.755Z,19.10
2023-10-03T12:44:33.873Z,19.20
2023-10-03T12:47:38.642Z,19.40
2023-10-03T12:50:40.652Z,19.40
2023-10-03T12:53:42.828Z,19.40
2023-10-03T12:56:47.733Z,19.50
2023-10-03T12:59:53.464Z,19.60
2023-10-03T13:03:01.305Z,19.70
2023-10-03T13:06:03.447Z,19.70
2023-10-03T13:09:06.178Z,19.70
2023-10-03T13:12:09.783Z,19.80
2023-10-03T13:15:12.583Z,19.70
2023-10-03T13:18:15.809Z,19.70
2023-10-03T13:21:17.963Z,19.70
2023-10-03T13:24:21.590Z,19.70
2023-10-03T13:27:23.478Z,19.60
2023-10-03T13:30:29.587Z,19.50
2023-10-03T13:33:33.058Z,19.30
2023-10-03T13:36:35.172Z,19.30
2023-10-03T13:39:37.167Z,19.30
2023-10-03T13:42:39.942Z,19.20
2023-10-03T13:45:41.715Z,19.10
2023-10-03T13:48:43.712Z,19.00
2023-10-03T13:51:47.917Z,18.90
2023-10-03T13:54:50.049Z,18.80
2023-10-03T13:57:53.743Z,18.90
2023-10-03T14:00:55.983Z,19.00
2023-10-03T14:03:58.594Z,19.00
2023-10-03T14:07:00.525Z,19.00
2023-10-03T14:10:07.124Z,19.00
2023-10-03T14:13:08.859Z,19.00
2023-10-03T14:16:10.684Z,19.10
2023-10-03T14:19:12.437Z,19.10
2023-10-03T14:22:15.459Z,19.00
2023-10-03T14:25:17.837Z,19.00
2023-10-03T14:28:19.613Z,18.90
2023-10-03T14:31:21.463Z,18.80
2023-10-03T14:34:23.490Z,18.70
2023-10-03T14:37:28.507Z,18.60
2023-10-03T14:40:30.292Z,18.60
2023-10-03T14:43:33.758Z,18.50
2023-10-03T14:46:35.788Z,18.40
2023-10-03T14:49:37.531Z,18.40
2023-10-03T14:52:40.650Z,18.40
2023-10-03T14:55:43.290Z,18.30
2023-10-03T14:58:45.304Z,18.40
2023-10-03T15:01:47.066Z,18.40
2023-10-03T15:04:49.034Z,18.40
2023-10-03T15:07:50.988Z,18.30
2023-10-03T15:11:07.375Z,18.30
2023-10-03T15:14:09.149Z,18.30
2023-10-03T15:17:12.381Z,18.30
2023-10-03T15:20:14.360Z,18.30
2023-10-03T15:23:16.232Z,18.30
2023-10-03T15:26:18.491Z,18.30
2023-10-03T15:29:20.211Z,18.30
2023-10-03T15:32:23.121Z,18.30
2023-10-03T15:35:24.848Z,18.20
2023-10-03T15:38:28.055Z,18.10
2023-10-03T15:41:29.905Z,18.10
2023-10-03T15:44:31.838Z,18.10
2023-10-03T15:47:34.471Z,18.10
2023-10-03T15:50:41.255Z,17.90
2023-10-03T15:53:55.388Z,18.00
2023-10-03T15:56:57.513Z,18.00
2023-10-03T15:59:59.576Z,18.00
2023-10-03T16:03:01.793Z,18.00
2023-10-03T16:06:04.147Z,18.00
2023-10-03T16:09:14.208Z,18.00
2023-10-03T16:12:17.140Z,17.90
2023-10-03T16:15:19.576Z,17.90
2023-10-03T16:18:21.947Z,17.70
2023-10-03T16:21:24.165Z,17.80
2023-10-03T16:24:26.697Z,17.70
2023-10-03T16:27:31.077Z,17.70
2023-10-03T16:30:33.953Z,17.70
2023-10-03T16:33:36.019Z,17.70
2023-10-03T16:36:39.316Z,17.60
2023-10-03T16:39:41.217Z,17.70
2023-10-03T16:42:46.643Z,17.60
2023-10-03T16:45:48.803Z,17.50
2023-10-03T16:48:50.715Z,17.50
2023-10-03T16:51:52.712Z,17.50
2023-10-03T16:54:54.700Z,17.50
2023-10-03T16:57:56.930Z,17.40
2023-10-03T17:00:59.829Z,17.40
2023-10-03T17:04:02.111Z,17.40
2023-10-03T17:07:04.214Z,17.30
2023-10-03T17:10:11.818Z,17.30
2023-10-03T17:13:22.909Z,17.20
2023-10-03T17:16:25.339Z,17.20
2023-10-03T17:19:27.212Z,17.20
2023-10-03T17:22:29.010Z,17.10
2023-10-03T17:25:32.169Z,17.10
2023-10-03T17:28:33.936Z,17.10
2023-10-03T17:31:36.394Z,17.10
2023-10-03T17:34:38.600Z,17.00
2023-10-03T17:37:43.856Z,17.00
2023-10-03T17:40:45.637Z,16.90
2023-10-03T17:43:47.395Z,16.80
2023-10-03T17:46:49.920Z,16.80
2023-10-03T17:49:54.724Z,16.80
2023-10-03T17:52:56.697Z,16.80
2023-10-03T17:55:58.922Z,16.60
2023-10-03T17:59:02.137Z,16.60
2023-10-03T18:02:12.011Z,16.60
2023-10-03T18:05:17.922Z,16.50
2023-10-03T18:08:20.373Z,16.50
2023-10-03T18:11:22.324Z,16.50
2023-10-03T18:14:24.777Z,16.40
2023-10-03T18:17:27.990Z,16.30
2023-10-03T18:20:32.897Z,16.20
2023-10-03T18:24:39.866Z,16.20
2023-10-03T18:28:26.004Z,16.20
2023-10-03T18:31:28.395Z,16.30
2023-10-03T18:34:30.969Z,16.30
2023-10-03T18:37:34.926Z,16.20
2023-10-03T18:40:38.364Z,16.30
2023-10-03T18:43:40.622Z,16.30
2023-10-03T18:46:44.880Z,16.30
2023-10-03T18:49:57.299Z,16.40
2023-10-03T18:52:59.134Z,16.40
2023-10-03T18:56:01.461Z,16.40
2023-10-03T18:59:04.893Z,16.40
2023-10-03T19:02:07.438Z,16.30
2023-10-03T19:05:10.388Z,16.40
2023-10-03T19:08:12.610Z,16.40
2023-10-03T19:11:18.654Z,16.30
2023-10-03T19:14:20.419Z,16.20
2023-10-03T19:17:22.541Z,16.20
2023-10-03T19:20:27.803Z,16.20
2023-10-03T19:23:38.664Z,16.20
2023-10-03T19:26:40.738Z,16.10
2023-10-03T19:29:42.519Z,16.10
2023-10-03T19:32:44.596Z,16.00
2023-10-03T19:35:46.507Z,16.10
2023-10-03T19:38:48.431Z,16.00
2023-10-03T19:41:50.722Z,16.00
2023-10-03T19:48:15.163Z,16.00
2023-10-03T19:51:19.714Z,16.00
2023-10-03T19:54:21.706Z,16.00
2023-10-03T19:57:27.020Z,16.00
2023-10-03T20:00:28.947Z,16.00
2023-10-03T20:03:31.612Z,16.00
2023-10-03T20:06:33.633Z,16.10
2023-10-03T20:09:36.349Z,16.00
2023-10-03T20:12:38.288Z,16.00
2023-10-03T20:15:40.853Z,16.00
2023-10-03T20:18:43.197Z,15.90
2023-10-03T20:21:46.936Z,15.90
2023-10-03T20:24:49.752Z,15.90
2023-10-03T20:27:52.597Z,15.80
2023-10-03T20:30:54.742Z,15.80
2023-10-03T20:33:56.700Z,15.80
2023-10-03T20:37:00.205Z,15.80
2023-10-03T20:40:02.926Z,15.80
2023-10-03T20:43:04.930Z,15.80
2023-10-03T20:46:15.006Z,15.80
2023-10-03T20:49:18.155Z,15.70
2023-10-03T20:52:21.656Z,15.70
2023-10-03T20:55:24.138Z,15.70
2023-10-03T20:58:26.112Z,15.70
2023-10-03T21:01:27.904Z,15.70
2023-10-03T21:04:29.750Z,15.70
2023-10-03T21:07:35.078Z,15.70
2023-10-03T21:10:41.912Z,15.60
2023-10-03T21:13:44.441Z,15.60
2023-10-03T21:16:46.326Z,15.60
2023-10-03T21:19:48.357Z,15.60
2023-10-03T21:22:50.110Z,15.60
2023-10-03T21:25:52.081Z,15.60
2023-10-03T21:28:54.788Z,15.50
2023-10-03T21:31:56.697Z,15.50
2023-10-03T21:35:01.781Z,15.50
2023-10-03T21:38:08.040Z,15.50
2023-10-03T21:41:10.747Z,15.50
2023-10-03T21:44:13.097Z,15.50
2023-10-03T21:47:15.103Z,15.50
2023-10-03T21:50:18.423Z,15.50
2023-10-03T21:53:20.667Z,15.50
2023-10-03T21:56:22.929Z,15.50
2023-10-03T21:59:24.887Z,15.40
2023-10-03T22:02:30.903Z,15.40
2023-10-03T22:05:33.605Z,15.40
2023-10-03T22:08:35.831Z,15.40
2023-10-03T22:11:37.630Z,15.30
2023-10-03T22:14:39.601Z,15.30
2023-10-03T22:17:43.869Z,15.20
2023-10-03T22:20:45.902Z,15.20
2023-10-03T22:23:48.077Z,15.20
2023-10-03T22:26:50.717Z,15.20
2023-10-03T22:29:52.628Z,15.20
2023-10-03T22:32:54.778Z,15.20
2023-10-03T22:36:00.297Z,15.10
2023-10-03T22:39:04.223Z,15.10
2023-10-03T22:42:07.645Z,15.10
2023-10-03T22:45:12.427Z,15.00
2023-10-03T22:48:14.713Z,15.10
2023-10-03T22:51:16.972Z,15.00
2023-10-03T23:17:59.875Z,14.90
2023-10-03T23:37:37.386Z,14.80
2023-10-03T23:40:39.614Z,14.80
2023-10-03T23:43:41.835Z,14.80
2023-10-03T23:46:43.937Z,14.80
2023-10-03T23:49:45.822Z,14.70
